createdAt,value
2022-08-01T00:00:56.016Z,96586.00
2022-08-01T00:03:23.739Z,96587.72
2022-08-01T00:05:51.499Z,96592.06
2022-08-01T00:08:19.366Z,96593.44
2022-08-01T00:10:47.111Z,96573.94
2022-08-01T00:13:14.844Z,96588.25
2022-08-01T00:15:44.367Z,96587.84
2022-08-01T00:18:23.282Z,96581.66
2022-08-01T00:20:51.151Z,96590.31
2022-08-01T00:23:18.967Z,96588.47
2022-08-01T00:25:46.719Z,96584.59
2022-08-01T00:28:14.694Z,96589.78
2022-08-01T00:30:42.439Z,96583.13
2022-08-01T00:33:10.205Z,96586.81
2022-08-01T00:35:39.285Z,96597.13
2022-08-01T00:38:07.039Z,96596.84
2022-08-01T00:40:34.778Z,96592.25
2022-08-01T00:43:02.711Z,96598.81
2022-08-01T00:45:30.550Z,96600.25
2022-08-01T00:47:58.229Z,96596.19
2022-08-01T00:50:26.176Z,96590.69
2022-08-01T00:52:56.755Z,96594.47
2022-08-01T00:55:24.879Z,96588.69
2022-08-01T00:58:05.147Z,96596.84
2022-08-01T01:00:52.599Z,96594.91
2022-08-01T01:03:23.779Z,96599.66
2022-08-01T01:06:13.189Z,96601.59
2022-08-01T01:08:48.673Z,96601.94
2022-08-01T01:11:23.865Z,96600.84
2022-08-01T01:13:56.247Z,96613.28
2022-08-01T01:16:24.734Z,96609.94
2022-08-01T01:18:56.883Z,96594.78
2022-08-01T01:21:37.246Z,96607.00
2022-08-01T01:24:17.598Z,96601.59
2022-08-01T01:26:51.861Z,96604.25
2022-08-01T01:29:25.961Z,96606.69
2022-08-01T01:31:59.536Z,96602.41
2022-08-01T01:34:29.837Z,96602.72
2022-08-01T01:37:01.262Z,96599.59
2022-08-01T01:39:31.958Z,96602.56
2022-08-01T01:42:00.646Z,96598.47
2022-08-01T01:44:31.196Z,96592.63
2022-08-01T01:46:59.811Z,96594.19
2022-08-01T01:49:29.900Z,96597.97
2022-08-01T01:52:02.813Z,96594.53
2022-08-01T01:54:35.010Z,96600.88
2022-08-01T01:57:05.348Z,96603.63
2022-08-01T01:59:38.221Z,96606.97
2022-08-01T02:02:08.449Z,96600.66
2022-08-01T02:04:39.774Z,96603.94
2022-08-01T02:07:09.881Z,96610.13
2022-08-01T02:09:39.226Z,96605.19
2022-08-01T02:12:09.192Z,96601.91
2022-08-01T02:14:41.075Z,96602.13
2022-08-01T02:17:11.185Z,96608.53
2022-08-01T02:19:39.938Z,96611.50
2022-08-01T02:22:12.101Z,96604.91
2022-08-01T02:24:41.684Z,96607.25
2022-08-01T02:27:13.325Z,96605.63
2022-08-01T02:29:45.727Z,96607.84
2022-08-01T02:32:19.309Z,96607.63
2022-08-01T02:34:51.349Z,96615.75
2022-08-01T02:37:21.064Z,96613.31
2022-08-01T02:39:52.248Z,96607.56
2022-08-01T02:42:21.108Z,96617.22
2022-08-01T02:44:52.051Z,96624.88
2022-08-01T02:47:22.644Z,96623.22
2022-08-01T02:49:53.928Z,96622.75
2022-08-01T02:52:25.183Z,96621.56
2022-08-01T02:54:57.114Z,96621.38
2022-08-01T02:57:27.891Z,96616.19
2022-08-01T03:00:07.080Z,96619.94
2022-08-01T03:02:37.919Z,96615.13
2022-08-01T03:05:07.138Z,96611.81
2022-08-01T03:07:39.755Z,96611.31
2022-08-01T03:10:10.647Z,96612.09
2022-08-01T03:12:41.353Z,96612.38
2022-08-01T03:15:13.305Z,96609.97
2022-08-01T03:17:45.211Z,96610.47
2022-08-01T03:20:15.114Z,96607.06
2022-08-01T03:22:45.577Z,96609.28
2022-08-01T03:25:15.496Z,96611.34
2022-08-01T03:27:45.331Z,96606.94
2022-08-01T03:30:16.509Z,96616.16
2022-08-01T03:32:44.535Z,96611.56
2022-08-01T03:35:12.318Z,96619.44
2022-08-01T03:38:13.116Z,96614.81
2022-08-01T03:40:39.031Z,96614.81
2022-08-01T03:43:12.559Z,96617.41
2022-08-01T03:45:44.290Z,96620.50
2022-08-01T03:48:18.604Z,96628.09
2022-08-01T03:50:50.610Z,96621.06
2022-08-01T03:53:22.414Z,96621.56
2022-08-01T03:55:51.534Z,96621.03
2022-08-01T03:58:19.725Z,96614.00
2022-08-01T04:00:49.968Z,96611.56
2022-08-01T04:03:18.910Z,96616.34
2022-08-01T04:05:46.695Z,96615.91
2022-08-01T04:08:14.428Z,96622.06
2022-08-01T04:10:42.755Z,96605.34
2022-08-01T04:13:10.495Z,96619.44
2022-08-01T04:15:38.254Z,96618.09
2022-08-01T04:18:07.837Z,96622.06
2022-08-01T04:20:35.611Z,96614.03
2022-08-01T04:23:05.698Z,96616.50
2022-08-01T04:25:37.094Z,96621.59
2022-08-01T04:28:08.613Z,96631.06
2022-08-01T04:30:38.766Z,96635.94
2022-08-01T04:33:10.537Z,96632.19
2022-08-01T04:36:03.827Z,96634.31
2022-08-01T04:38:31.555Z,96638.84
2022-08-01T04:41:08.750Z,96640.47
2022-08-01T04:43:38.189Z,96645.94
2022-08-01T04:46:07.743Z,96641.03
2022-08-01T04:48:39.421Z,96654.50
2022-08-01T04:51:14.139Z,96650.41
2022-08-01T04:53:42.064Z,96650.78
2022-08-01T04:56:09.955Z,96655.88
2022-08-01T04:58:37.683Z,96655.53
2022-08-01T05:01:05.436Z,96657.91
2022-08-01T05:03:38.405Z,96651.69
2022-08-01T05:06:08.248Z,96668.66
2022-08-01T05:08:37.121Z,96663.56
2022-08-01T05:11:05.157Z,96669.69
2022-08-01T05:13:33.074Z,96659.34
2022-08-01T05:16:01.014Z,96671.75
2022-08-01T05:18:28.890Z,96667.31
2022-08-01T05:20:56.781Z,96666.16
2022-08-01T05:23:42.420Z,96664.44
2022-08-01T05:26:11.861Z,96661.91
2022-08-01T05:28:42.733Z,96665.84
2022-08-01T05:31:10.581Z,96662.19
2022-08-01T05:33:38.366Z,96671.56
2022-08-01T05:36:06.817Z,96669.84
2022-08-01T05:38:35.918Z,96661.72
2022-08-01T05:41:03.660Z,96659.56
2022-08-01T05:43:31.452Z,96662.81
2022-08-01T05:45:59.799Z,96657.22
2022-08-01T05:48:27.606Z,96665.31
2022-08-01T05:50:58.679Z,96673.72
2022-08-01T05:53:27.045Z,96673.53
2022-08-01T05:55:56.206Z,96669.25
2022-08-01T05:58:24.652Z,96669.78
2022-08-01T06:00:52.313Z,96663.59
2022-08-01T06:03:20.747Z,96670.66
2022-08-01T06:05:48.454Z,96670.94
2022-08-01T06:08:16.243Z,96668.34
2022-08-01T06:10:43.989Z,96663.66
2022-08-01T06:13:13.101Z,96667.47
2022-08-01T06:15:41.022Z,96665.91
2022-08-01T06:18:08.707Z,96669.66
2022-08-01T06:20:36.780Z,96669.31
2022-08-01T06:23:14.670Z,96668.50
2022-08-01T06:25:54.499Z,96668.78
2022-08-01T06:28:23.720Z,96667.66
2022-08-01T06:30:51.454Z,96664.22
2022-08-01T06:33:19.204Z,96670.63
2022-08-01T06:35:46.975Z,96661.81
2022-08-01T06:38:14.682Z,96662.44
2022-08-01T06:40:42.471Z,96665.13
2022-08-01T06:43:12.246Z,96662.19
2022-08-01T06:45:41.847Z,96664.25
2022-08-01T06:48:09.565Z,96670.66
2022-08-01T06:50:37.865Z,96664.78
2022-08-01T06:53:05.896Z,96663.75
2022-08-01T06:55:34.019Z,96668.72
2022-08-01T06:58:01.815Z,96665.09
2022-08-01T07:00:29.663Z,96662.97
2022-08-01T07:03:00.875Z,96662.63
2022-08-01T07:05:28.674Z,96659.06
2022-08-01T07:07:56.610Z,96656.47
2022-08-01T07:10:24.359Z,96661.88
2022-08-01T07:12:52.111Z,96660.16
2022-08-01T07:15:21.674Z,96655.63
2022-08-01T07:17:49.450Z,96651.81
2022-08-01T07:20:18.670Z,96651.84
2022-08-01T07:22:47.496Z,96653.44
2022-08-01T07:25:16.238Z,96648.63
2022-08-01T07:27:43.995Z,96648.81
2022-08-01T07:30:12.521Z,96649.66
2022-08-01T07:32:40.235Z,96641.09
2022-08-01T07:35:08.723Z,96640.44
2022-08-01T07:37:45.519Z,96633.81
2022-08-01T07:40:17.494Z,96637.22
2022-08-01T07:42:45.995Z,96633.91
2022-08-01T07:45:14.715Z,96633.97
2022-08-01T07:47:42.527Z,96638.63
2022-08-01T07:50:10.655Z,96635.00
2022-08-01T07:52:39.742Z,96628.13
2022-08-01T07:55:08.970Z,96631.00
2022-08-01T07:57:37.278Z,96625.97
2022-08-01T08:00:07.052Z,96622.63
2022-08-01T08:02:34.812Z,96623.84
2022-08-01T08:05:02.568Z,96621.66
2022-08-01T08:07:30.442Z,96628.31
2022-08-01T08:09:59.879Z,96617.13
2022-08-01T08:12:30.015Z,96612.69
2022-08-01T08:14:59.300Z,96623.53
2022-08-01T08:17:27.320Z,96614.97
2022-08-01T08:19:55.387Z,96613.31
2022-08-01T08:22:23.142Z,96609.47
2022-08-01T08:24:50.950Z,96615.34
2022-08-01T08:27:20.034Z,96615.41
2022-08-01T08:29:47.766Z,96609.44
2022-08-01T08:32:15.464Z,96608.53
2022-08-01T08:34:43.436Z,96607.97
2022-08-01T08:37:11.354Z,96611.25
2022-08-01T08:39:42.159Z,96604.00
2022-08-01T08:42:11.566Z,96601.41
2022-08-01T08:44:43.552Z,96607.16
2022-08-01T08:47:19.635Z,96589.63
2022-08-01T08:49:49.556Z,96600.28
2022-08-01T08:52:19.551Z,96598.91
2022-08-01T08:54:48.278Z,96594.91
2022-08-01T08:57:17.185Z,96595.72
2022-08-01T08:59:46.813Z,96593.06
2022-08-01T09:02:14.905Z,96591.31
2022-08-01T09:04:43.120Z,96593.72
2022-08-01T09:07:12.686Z,96593.38
2022-08-01T09:09:41.778Z,96602.34
2022-08-01T09:12:10.828Z,96596.56
2022-08-01T09:14:48.463Z,96600.19
2022-08-01T09:17:17.349Z,96598.66
2022-08-01T09:19:48.585Z,96593.94
2022-08-01T09:22:19.550Z,96606.09
2022-08-01T09:25:00.634Z,96606.47
2022-08-01T09:27:30.466Z,96602.34
2022-08-01T09:30:11.182Z,96596.88
2022-08-01T09:32:54.224Z,96595.50
2022-08-01T09:35:31.000Z,96591.75
2022-08-01T09:38:16.671Z,96587.94
2022-08-01T09:40:49.554Z,96592.84
2022-08-01T09:43:20.093Z,96592.28
2022-08-01T09:45:50.714Z,96594.97
2022-08-01T09:48:22.776Z,96590.44
2022-08-01T09:51:05.030Z,96599.19
2022-08-01T09:53:51.420Z,96588.25
2022-08-01T09:56:21.367Z,96587.16
2022-08-01T09:58:59.435Z,96581.19
2022-08-01T10:01:36.842Z,96579.41
2022-08-01T10:04:12.399Z,96573.09
2022-08-01T10:06:41.724Z,96575.75
2022-08-01T10:09:09.719Z,96566.16
2022-08-01T10:11:39.992Z,96570.50
2022-08-01T10:14:09.522Z,96574.31
2022-08-01T10:16:40.220Z,96564.69
2022-08-01T10:19:14.506Z,96562.22
2022-08-01T10:21:56.592Z,96562.31
2022-08-01T10:24:29.294Z,96558.09
2022-08-01T10:27:08.081Z,96548.78
2022-08-01T10:29:59.021Z,96550.34
2022-08-01T10:32:29.107Z,96547.78
2022-08-01T10:34:57.846Z,96547.69
2022-08-01T10:37:27.176Z,96543.50
2022-08-01T10:40:14.128Z,96540.06
2022-08-01T10:42:45.830Z,96535.44
2022-08-01T10:45:16.311Z,96535.00
2022-08-01T10:47:54.076Z,96538.41
2022-08-01T10:50:29.612Z,96530.63
2022-08-01T10:53:23.822Z,96522.59
2022-08-01T10:56:03.766Z,96511.16
2022-08-01T10:58:39.505Z,96521.31
2022-08-01T11:01:25.491Z,96522.13
2022-08-01T11:04:06.441Z,96518.19
2022-08-01T11:06:44.479Z,96509.47
2022-08-01T11:09:36.030Z,96513.00
2022-08-01T11:12:13.468Z,96525.28
2022-08-01T11:15:29.162Z,96511.84
2022-08-01T11:18:06.259Z,96514.47
2022-08-01T11:20:41.739Z,96509.31
2022-08-01T11:23:19.632Z,96503.31
2022-08-01T11:26:13.204Z,96497.75
2022-08-01T11:28:54.391Z,96489.84
2022-08-01T11:31:37.660Z,96493.53
2022-08-01T11:34:06.173Z,96492.69
2022-08-01T11:39:23.187Z,96499.13
2022-08-01T11:41:53.637Z,96495.75
2022-08-01T11:44:26.500Z,96492.84
2022-08-01T11:47:09.158Z,96475.78
2022-08-01T11:49:50.440Z,96484.78
2022-08-01T11:52:20.604Z,96478.81
2022-08-01T11:54:50.299Z,96477.50
2022-08-01T11:57:23.474Z,96476.56
2022-08-01T12:00:03.449Z,96464.00
2022-08-01T12:02:34.942Z,96457.25
2022-08-01T12:05:05.604Z,96464.31
2022-08-01T12:07:38.513Z,96454.63
2022-08-01T12:10:08.502Z,96449.50
2022-08-01T12:12:38.320Z,96446.19
2022-08-01T12:15:10.037Z,96445.66
2022-08-01T12:17:39.976Z,96445.38
2022-08-01T12:20:12.612Z,96436.88
2022-08-01T12:22:42.041Z,96437.34
2022-08-01T12:25:11.757Z,96441.06
2022-08-01T12:27:41.683Z,96442.28
2022-08-01T12:30:12.789Z,96431.69
2022-08-01T12:32:41.216Z,96426.47
2022-08-01T12:35:11.589Z,96436.91
2022-08-01T12:37:45.353Z,96437.78
2022-08-01T12:40:16.353Z,96429.31
2022-08-01T12:42:45.806Z,96424.34
2022-08-01T12:45:16.177Z,96425.91
2022-08-01T12:47:44.933Z,96429.78
2022-08-01T12:50:15.783Z,96418.91
2022-08-01T12:52:45.313Z,96425.00
2022-08-01T12:55:15.555Z,96424.63
2022-08-01T12:57:46.216Z,96428.47
2022-08-01T13:00:18.104Z,96422.66
2022-08-01T13:02:47.353Z,96413.38
2022-08-01T13:05:15.942Z,96412.47
2022-08-01T13:07:50.747Z,96417.06
2022-08-01T13:10:27.733Z,96405.53
2022-08-01T13:12:57.118Z,96403.28
2022-08-01T13:15:28.132Z,96406.44
2022-08-01T13:17:56.464Z,96408.66
2022-08-01T13:20:30.171Z,96404.34
2022-08-01T13:23:12.868Z,96407.66
2022-08-01T13:25:54.587Z,96402.97
2022-08-01T13:28:24.914Z,96402.50
2022-08-01T13:30:54.254Z,96402.97
2022-08-01T13:33:22.040Z,96403.09
2022-08-01T13:35:52.156Z,96395.75
2022-08-01T13:38:21.064Z,96391.88
2022-08-01T13:40:48.852Z,96395.41
2022-08-01T13:43:18.557Z,96395.56
2022-08-01T13:45:46.263Z,96408.13
2022-08-01T13:48:19.082Z,96396.75
2022-08-01T13:50:57.406Z,96404.38
2022-08-01T13:53:36.798Z,96399.59
2022-08-01T13:56:04.808Z,96404.91
2022-08-01T13:58:32.629Z,96400.75
2022-08-01T14:01:00.627Z,96391.94
2022-08-01T14:03:33.819Z,96386.59
2022-08-01T14:06:02.362Z,96389.50
2022-08-01T14:08:30.181Z,96381.88
2022-08-01T14:11:00.548Z,96389.13
2022-08-01T14:13:33.574Z,96390.00
2022-08-01T14:16:05.004Z,96381.81
2022-08-01T14:18:33.265Z,96379.00
2022-08-01T14:21:05.660Z,96377.38
2022-08-01T14:23:33.660Z,96372.75
2022-08-01T14:26:09.705Z,96365.72
2022-08-01T14:28:39.623Z,96362.38
2022-08-01T14:31:08.583Z,96366.31
2022-08-01T14:33:36.764Z,96370.31
2022-08-01T14:36:20.689Z,96377.13
2022-08-01T14:38:52.899Z,96366.94
2022-08-01T14:41:22.018Z,96379.72
2022-08-01T14:43:49.985Z,96367.34
2022-08-01T14:46:18.017Z,96372.34
2022-08-01T14:48:45.797Z,96355.47
2022-08-01T14:51:14.813Z,96361.31
2022-08-01T14:53:46.567Z,96363.75
2022-08-01T14:56:19.300Z,96368.03
2022-08-01T14:58:48.524Z,96368.09
2022-08-01T15:01:17.337Z,96358.59
2022-08-01T15:03:45.208Z,96370.44
2022-08-01T15:06:13.657Z,96374.81
2022-08-01T15:08:41.722Z,96368.47
2022-08-01T15:11:09.676Z,96365.31
2022-08-01T15:13:42.013Z,96368.16
2022-08-01T15:16:12.360Z,96356.41
2022-08-01T15:18:40.446Z,96353.81
2022-08-01T15:21:11.567Z,96354.50
2022-08-01T15:23:42.284Z,96360.16
2022-08-01T15:26:14.631Z,96358.09
2022-08-01T15:28:42.365Z,96360.50
2022-08-01T15:31:14.262Z,96363.50
2022-08-01T15:33:42.267Z,96372.47
2022-08-01T15:36:10.888Z,96373.06
2022-08-01T15:38:43.119Z,96364.97
2022-08-01T15:41:10.962Z,96365.81
2022-08-01T15:43:43.129Z,96366.78
2022-08-01T15:46:14.035Z,96372.81
2022-08-01T15:48:41.765Z,96370.81
2022-08-01T15:51:09.725Z,96379.59
2022-08-01T15:53:37.479Z,96374.91
2022-08-01T15:56:06.061Z,96373.81
2022-08-01T15:58:33.869Z,96372.94
2022-08-01T16:01:01.674Z,96368.75
2022-08-01T16:03:30.963Z,96376.13
2022-08-01T16:05:58.689Z,96374.31
2022-08-01T16:08:26.487Z,96374.66
2022-08-01T16:10:54.207Z,96377.59
2022-08-01T16:13:22.093Z,96363.69
2022-08-01T16:15:49.841Z,96374.16
2022-08-01T16:18:17.662Z,96378.78
2022-08-01T16:20:46.785Z,96379.28
2022-08-01T16:23:15.278Z,96374.53
2022-08-01T16:25:43.745Z,96364.03
2022-08-01T16:28:12.059Z,96372.25
2022-08-01T16:30:48.862Z,96362.28
2022-08-01T16:33:36.769Z,96363.00
2022-08-01T16:36:18.068Z,96352.25
2022-08-01T16:38:46.149Z,96355.88
2022-08-01T16:41:19.602Z,96353.91
2022-08-01T16:43:53.104Z,96354.38
2022-08-01T16:46:23.179Z,96357.25
2022-08-01T16:48:51.000Z,96361.47
2022-08-01T16:51:20.717Z,96363.38
2022-08-01T16:53:48.575Z,96362.72
2022-08-01T16:56:16.497Z,96364.94
2022-08-01T16:58:44.404Z,96372.50
2022-08-01T17:02:03.340Z,96366.63
2022-08-01T17:04:01.551Z,96360.47
2022-08-01T17:06:31.374Z,96368.91
2022-08-01T17:08:59.555Z,96373.19
2022-08-01T17:11:27.429Z,96369.28
2022-08-01T17:13:55.304Z,96367.16
2022-08-01T17:16:23.316Z,96384.47
2022-08-01T17:18:51.101Z,96367.91
2022-08-01T17:21:19.173Z,96371.22
2022-08-01T17:23:48.383Z,96379.25
2022-08-01T17:26:16.243Z,96371.00
2022-08-01T17:28:44.711Z,96379.63
2022-08-01T17:31:12.421Z,96374.00
2022-08-01T17:33:46.060Z,96377.00
2022-08-01T17:36:17.591Z,96370.94
2022-08-01T17:38:45.449Z,96364.50
2022-08-01T17:41:15.010Z,96382.19
2022-08-01T17:43:42.963Z,96382.38
2022-08-01T17:46:10.756Z,96375.09
2022-08-01T17:48:38.593Z,96379.56
2022-08-01T17:51:06.537Z,96371.66
2022-08-01T17:53:34.890Z,96379.56
2022-08-01T17:56:05.702Z,96386.09
2022-08-01T17:58:50.739Z,96385.84
2022-08-01T18:01:20.726Z,96386.31
2022-08-01T18:03:48.887Z,96386.56
2022-08-01T18:06:19.232Z,96392.53
2022-08-01T18:08:48.339Z,96383.66
2022-08-01T18:11:17.101Z,96396.16
2022-08-01T18:13:46.532Z,96417.09
2022-08-01T18:16:17.044Z,96414.78
2022-08-01T18:18:44.826Z,96415.72
2022-08-01T18:21:13.533Z,96410.75
2022-08-01T18:23:44.146Z,96413.38
2022-08-01T18:26:20.592Z,96418.63
2022-08-01T18:28:49.771Z,96423.13
2022-08-01T18:31:20.166Z,96419.75
2022-08-01T18:33:48.076Z,96414.34
2022-08-01T18:36:31.382Z,96419.97
2022-08-01T18:39:04.432Z,96425.47
2022-08-01T18:41:33.075Z,96430.25
2022-08-01T18:44:05.706Z,96438.66
2022-08-01T18:46:36.664Z,96441.09
2022-08-01T18:49:04.761Z,96436.38
2022-08-01T18:51:32.520Z,96438.72
2022-08-01T18:54:00.329Z,96445.09
2022-08-01T18:56:28.114Z,96442.69
2022-08-01T18:58:56.553Z,96454.84
2022-08-01T19:01:25.730Z,96462.97
2022-08-01T19:03:53.532Z,96473.28
2022-08-01T19:06:21.339Z,96477.56
2022-08-01T19:08:49.091Z,96475.63
2022-08-01T19:11:16.854Z,96477.94
2022-08-01T19:13:44.597Z,96480.56
2022-08-01T19:16:13.705Z,96483.47
2022-08-01T19:18:43.016Z,96482.66
2022-08-01T19:21:14.230Z,96482.03
2022-08-01T19:23:59.531Z,96479.00
2022-08-01T19:26:28.216Z,96484.28
2022-08-01T19:28:58.822Z,96488.09
2022-08-01T19:31:28.660Z,96481.69
2022-08-01T19:33:58.567Z,96487.78
2022-08-01T19:36:27.771Z,96488.56
2022-08-01T19:38:57.367Z,96494.94
2022-08-01T19:41:25.183Z,96498.78
2022-08-01T19:43:53.321Z,96486.09
2022-08-01T19:46:21.223Z,96504.44
2022-08-01T19:48:54.132Z,96511.25
2022-08-01T19:51:33.844Z,96525.66
2022-08-01T19:54:06.175Z,96536.00
2022-08-01T19:56:39.769Z,96549.56
2022-08-01T19:59:09.324Z,96562.84
2022-08-01T20:01:37.941Z,96577.53
2022-08-01T20:04:06.991Z,96583.72
2022-08-01T20:06:36.592Z,96598.50
2022-08-01T20:09:05.794Z,96613.03
2022-08-01T20:11:33.631Z,96625.97
2022-08-01T20:14:02.065Z,96634.84
2022-08-01T20:16:32.702Z,96634.78
2022-08-01T20:19:00.701Z,96649.97
2022-08-01T20:21:29.372Z,96650.53
2022-08-01T20:24:02.805Z,96643.59
2022-08-01T20:26:32.770Z,96661.72
2022-08-01T20:29:03.580Z,96636.84
2022-08-01T20:31:42.920Z,96646.09
2022-08-01T20:34:15.537Z,96648.47
2022-08-01T20:36:54.370Z,96630.09
2022-08-01T20:39:26.649Z,96639.22
2022-08-01T20:41:59.551Z,96634.16
2022-08-01T20:44:31.765Z,96618.06
2022-08-01T20:47:01.145Z,96608.22
2022-08-01T20:49:30.383Z,96605.56
2022-08-01T20:51:58.396Z,96610.19
2022-08-01T20:54:29.383Z,96608.75
2022-08-01T20:56:59.913Z,96615.63
2022-08-01T20:59:40.136Z,96617.94
2022-08-01T21:02:31.960Z,96613.59
2022-08-01T21:05:03.868Z,96610.44
2022-08-01T21:07:34.585Z,96616.69
2022-08-01T21:10:08.875Z,96613.84
2022-08-01T21:12:44.832Z,96617.69
2022-08-01T21:15:16.498Z,96625.78
2022-08-01T21:17:47.806Z,96627.41
2022-08-01T21:20:16.085Z,96631.72
2022-08-01T21:22:58.887Z,96630.97
2022-08-01T21:25:34.641Z,96638.97
2022-08-01T21:28:03.306Z,96648.66
2022-08-01T21:30:32.837Z,96655.56
2022-08-01T21:33:02.531Z,96668.19
2022-08-01T21:35:30.393Z,96673.94
2022-08-01T21:38:00.135Z,96675.34
2022-08-01T21:40:32.085Z,96684.56
2022-08-01T21:43:01.868Z,96685.28
2022-08-01T21:45:31.140Z,96692.41
2022-08-01T21:48:00.709Z,96704.75
2022-08-01T21:50:31.915Z,96703.44
2022-08-01T21:53:11.874Z,96702.09
2022-08-01T21:55:51.701Z,96706.38
2022-08-01T21:58:32.106Z,96706.91
2022-08-01T22:01:07.123Z,96712.44
2022-08-01T22:03:42.485Z,96710.31
2022-08-01T22:06:11.793Z,96706.75
2022-08-01T22:08:49.732Z,96705.88
2022-08-01T22:11:21.770Z,96708.69
2022-08-01T22:13:53.990Z,96711.31
2022-08-01T22:16:22.643Z,96704.34
2022-08-01T22:18:52.065Z,96703.88
2022-08-01T22:21:19.921Z,96704.31
2022-08-01T22:23:48.828Z,96707.81
2022-08-01T22:26:18.367Z,96702.13
2022-08-01T22:28:46.536Z,96715.13
2022-08-01T22:31:17.327Z,96698.88
2022-08-01T22:33:48.023Z,96707.59
2022-08-01T22:36:15.725Z,96711.63
2022-08-01T22:38:43.524Z,96707.47
2022-08-01T22:41:15.856Z,96714.59
2022-08-01T22:43:56.481Z,96716.09
2022-08-01T22:46:34.210Z,96718.03
2022-08-01T22:49:09.526Z,96711.63
2022-08-01T22:51:54.399Z,96720.06
2022-08-01T22:54:29.922Z,96716.53
2022-08-01T22:57:01.474Z,96723.00
2022-08-01T22:59:43.543Z,96717.13
2022-08-01T23:02:15.766Z,96721.97
2022-08-01T23:04:46.905Z,96723.56
2022-08-01T23:07:20.212Z,96718.16
2022-08-01T23:09:54.650Z,96732.78
2022-08-01T23:12:24.822Z,96733.31
2022-08-01T23:14:55.526Z,96726.03
2022-08-01T23:17:27.297Z,96721.47
2022-08-01T23:19:58.760Z,96736.00
2022-08-01T23:22:30.781Z,96729.53
2022-08-01T23:25:04.121Z,96726.31
2022-08-01T23:28:03.669Z,96728.78
2022-08-01T23:30:25.917Z,96731.78
2022-08-01T23:32:53.714Z,96731.22
2022-08-01T23:35:21.991Z,96731.22
2022-08-01T23:37:51.110Z,96726.34
2022-08-01T23:40:19.634Z,96725.50
2022-08-01T23:42:47.546Z,96729.03
2022-08-01T23:45:15.339Z,96720.38
2022-08-01T23:47:44.420Z,96723.69
2022-08-01T23:50:12.436Z,96730.94
2022-08-01T23:52:48.593Z,96723.09
2022-08-01T23:55:18.311Z,96734.25
2022-08-01T23:57:46.655Z,96739.91
